createdAt,value
2022-12-20T00:01:40.383Z,47.90
2022-12-20T00:04:25.894Z,18.58
2022-12-20T00:07:11.775Z,13.13
2022-12-20T00:09:57.329Z,18.17
2022-12-20T00:12:42.926Z,28.10
2022-12-20T00:15:28.291Z,31.95
2022-12-20T00:18:13.936Z,25.48
2022-12-20T00:21:03.534Z,16.83
2022-12-20T00:23:49.553Z,16.35
2022-12-20T00:26:35.886Z,15.52
2022-12-20T00:29:21.888Z,21.27
2022-12-20T00:32:07.616Z,22.70
2022-12-20T00:34:52.970Z,16.80
2022-12-20T00:37:38.623Z,24.73
2022-12-20T00:40:24.211Z,15.70
2022-12-20T00:43:09.800Z,14.65
2022-12-20T00:45:57.033Z,14.13
2022-12-20T00:48:42.841Z,15.93
2022-12-20T00:51:29.763Z,13.15
2022-12-20T00:54:15.150Z,15.82
2022-12-20T00:57:01.088Z,17.42
2022-12-20T00:59:46.860Z,15.00
2022-12-20T01:02:32.576Z,13.02
2022-12-20T01:05:18.809Z,16.52
2022-12-20T01:08:04.834Z,14.20
2022-12-20T01:11:18.058Z,19.30
2022-12-20T01:14:08.963Z,13.05
2022-12-20T01:16:54.663Z,13.68
2022-12-20T01:19:40.743Z,13.75
2022-12-20T01:22:26.304Z,13.25
2022-12-20T01:25:11.879Z,13.50
2022-12-20T01:27:57.596Z,13.50
2022-12-20T01:30:43.470Z,14.02
2022-12-20T01:33:28.827Z,15.77
2022-12-20T01:36:17.100Z,12.30
2022-12-20T01:39:13.231Z,14.35
2022-12-20T01:41:59.293Z,14.05
2022-12-20T01:44:44.944Z,13.77
2022-12-20T01:47:34.604Z,15.45
2022-12-20T01:50:20.467Z,14.50
2022-12-20T01:53:06.468Z,14.27
2022-12-20T01:55:52.908Z,25.33
2022-12-20T01:58:40.130Z,15.07
2022-12-20T02:01:26.325Z,15.30
2022-12-20T02:04:13.312Z,12.98
2022-12-20T02:07:00.318Z,14.93
2022-12-20T02:09:46.595Z,21.40
2022-12-20T02:12:46.058Z,14.77
2022-12-20T02:15:46.744Z,13.32
2022-12-20T02:18:44.777Z,11.52
2022-12-20T02:21:46.672Z,11.65
2022-12-20T02:24:57.289Z,10.80
2022-12-20T02:28:01.022Z,11.82
2022-12-20T02:30:49.227Z,13.00
2022-12-20T02:33:35.217Z,13.27
2022-12-20T02:36:20.548Z,13.35
2022-12-20T02:39:15.176Z,11.80
2022-12-20T02:45:15.763Z,11.35
2022-12-20T02:48:04.675Z,12.30
2022-12-20T02:50:56.891Z,12.63
2022-12-20T02:53:43.518Z,13.40
2022-12-20T02:56:46.835Z,13.45
2022-12-20T02:59:45.378Z,13.32
2022-12-20T03:02:54.813Z,16.02
2022-12-20T03:05:47.474Z,15.23
2022-12-20T03:08:36.310Z,21.85
2022-12-20T03:11:22.072Z,14.23
2022-12-20T03:14:07.211Z,14.38
2022-12-20T03:16:54.386Z,13.02
2022-12-20T03:19:40.428Z,14.13
2022-12-20T03:22:26.213Z,11.13
2022-12-20T03:25:11.507Z,12.30
2022-12-20T03:27:57.822Z,14.70
2022-12-20T03:30:46.097Z,11.88
2022-12-20T03:33:31.982Z,13.60
2022-12-20T03:36:23.677Z,11.35
2022-12-20T03:39:14.729Z,12.30
2022-12-20T03:42:00.438Z,14.30
2022-12-20T03:44:45.917Z,12.38
2022-12-20T03:47:31.947Z,12.55
2022-12-20T03:50:17.370Z,13.25
2022-12-20T03:53:03.471Z,12.10
2022-12-20T03:55:51.507Z,12.80
2022-12-20T03:58:37.390Z,14.75
2022-12-20T04:01:25.957Z,14.30
2022-12-20T04:04:14.355Z,15.77
2022-12-20T04:07:00.199Z,15.05
2022-12-20T04:09:46.218Z,18.52
2022-12-20T04:12:33.308Z,18.65
2022-12-20T04:15:19.111Z,21.35
2022-12-20T04:18:05.975Z,19.85
2022-12-20T04:20:55.004Z,16.08
2022-12-20T04:23:45.452Z,16.38
2022-12-20T04:26:32.374Z,14.43
2022-12-20T04:29:19.356Z,14.20
2022-12-20T04:32:05.394Z,15.82
2022-12-20T04:34:51.263Z,14.27
2022-12-20T04:37:37.539Z,13.43
2022-12-20T04:40:23.257Z,14.05
2022-12-20T04:43:12.704Z,14.35
2022-12-20T04:45:58.292Z,24.15
2022-12-20T04:49:01.022Z,10.73
2022-12-20T04:51:49.525Z,11.63
2022-12-20T04:54:36.844Z,12.85
2022-12-20T04:57:31.899Z,12.55
2022-12-20T05:00:18.781Z,13.30
2022-12-20T05:03:10.364Z,27.27
2022-12-20T05:05:56.103Z,13.07
2022-12-20T05:08:42.840Z,10.75
2022-12-20T05:11:28.442Z,10.98
2022-12-20T05:14:14.537Z,12.45
2022-12-20T05:16:59.879Z,11.80
2022-12-20T05:19:47.264Z,11.95
2022-12-20T05:22:53.231Z,11.55
2022-12-20T05:26:01.589Z,11.57
2022-12-20T05:28:47.504Z,11.32
2022-12-20T05:31:33.380Z,13.57
2022-12-20T05:34:20.041Z,14.10
2022-12-20T05:37:10.867Z,18.38
2022-12-20T05:39:59.206Z,20.48
2022-12-20T05:42:44.891Z,24.42
2022-12-20T05:45:31.975Z,33.13
2022-12-20T05:48:22.108Z,19.33
2022-12-20T05:51:07.563Z,39.72
2022-12-20T05:54:05.761Z,23.30
2022-12-20T05:57:05.686Z,16.35
2022-12-20T05:59:56.681Z,13.65
2022-12-20T06:02:44.348Z,12.48
2022-12-20T06:05:30.453Z,13.52
2022-12-20T06:08:18.888Z,12.38
2022-12-20T06:11:05.404Z,13.23
2022-12-20T06:13:58.463Z,13.82
2022-12-20T06:16:43.992Z,13.13
2022-12-20T06:19:30.889Z,13.57
2022-12-20T06:22:17.493Z,14.20
2022-12-20T06:25:10.417Z,12.27
2022-12-20T06:27:58.944Z,14.73
2022-12-20T06:30:44.778Z,20.08
2022-12-20T06:33:43.972Z,14.20
2022-12-20T06:36:30.943Z,15.43
2022-12-20T06:39:17.650Z,14.63
2022-12-20T06:42:23.801Z,14.43
2022-12-20T06:45:10.278Z,15.95
2022-12-20T06:47:57.608Z,14.43
2022-12-20T06:50:43.933Z,13.65
2022-12-20T06:53:30.253Z,13.52
2022-12-20T06:56:15.973Z,13.10
2022-12-20T06:59:02.461Z,15.45
2022-12-20T07:01:48.293Z,14.90
2022-12-20T07:04:34.121Z,15.68
2022-12-20T07:07:19.743Z,15.50
2022-12-20T07:10:05.859Z,14.15
2022-12-20T07:12:53.097Z,12.27
2022-12-20T07:15:38.765Z,13.55
2022-12-20T07:18:24.151Z,15.20
2022-12-20T07:21:14.182Z,15.60
2022-12-20T07:23:59.890Z,15.18
2022-12-20T07:26:45.866Z,16.52
2022-12-20T07:29:31.165Z,14.20
2022-12-20T07:32:16.747Z,17.52
2022-12-20T07:35:02.407Z,15.18
2022-12-20T07:37:48.254Z,12.98
2022-12-20T07:40:33.611Z,13.57
2022-12-20T07:43:19.023Z,15.73
2022-12-20T07:46:06.524Z,13.20
2022-12-20T07:48:52.499Z,12.95
2022-12-20T07:51:48.830Z,13.50
2022-12-20T07:54:38.421Z,14.20
2022-12-20T07:57:29.675Z,13.45
2022-12-20T08:00:15.951Z,12.93
2022-12-20T08:03:10.645Z,12.77
2022-12-20T08:06:00.971Z,13.43
2022-12-20T08:08:54.628Z,12.95
2022-12-20T08:11:43.531Z,13.70
2022-12-20T08:14:29.116Z,13.23
2022-12-20T08:17:15.324Z,12.65
2022-12-20T08:20:01.205Z,13.95
2022-12-20T08:22:47.054Z,12.07
2022-12-20T08:25:41.281Z,17.70
2022-12-20T08:28:27.758Z,12.43
2022-12-20T08:31:14.843Z,12.70
2022-12-20T08:34:01.559Z,12.80
2022-12-20T08:36:47.099Z,14.10
2022-12-20T08:39:32.623Z,12.68
2022-12-20T08:42:18.490Z,13.00
2022-12-20T08:45:04.646Z,46.65
2022-12-20T08:47:50.150Z,20.00
2022-12-20T08:50:36.303Z,13.45
2022-12-20T08:53:22.073Z,12.65
2022-12-20T08:56:16.438Z,12.45
2022-12-20T08:59:02.443Z,12.85
2022-12-20T09:01:48.076Z,13.70
2022-12-20T09:04:34.128Z,15.02
2022-12-20T09:07:19.658Z,13.98
2022-12-20T09:10:05.472Z,11.98
2022-12-20T09:12:51.150Z,12.07
2022-12-20T09:15:37.310Z,13.23
2022-12-20T09:18:23.067Z,12.63
2022-12-20T09:21:09.824Z,11.13
2022-12-20T09:23:58.061Z,11.85
2022-12-20T09:26:43.491Z,12.45
2022-12-20T09:29:35.542Z,13.55
2022-12-20T09:32:21.476Z,13.20
2022-12-20T09:35:07.534Z,12.63
2022-12-20T09:37:53.880Z,14.57
2022-12-20T09:40:46.840Z,12.75
2022-12-20T09:43:33.685Z,13.38
2022-12-20T09:46:20.385Z,13.48
2022-12-20T09:49:06.206Z,11.95
2022-12-20T09:52:07.814Z,12.93
2022-12-20T09:55:09.031Z,13.50
2022-12-20T09:58:15.323Z,17.92
2022-12-20T10:01:17.224Z,16.55
2022-12-20T10:04:28.941Z,14.65
2022-12-20T10:07:31.325Z,13.85
2022-12-20T10:10:28.612Z,12.02
2022-12-20T10:13:42.425Z,12.63
2022-12-20T10:17:02.621Z,11.30
2022-12-20T10:20:12.412Z,12.45
2022-12-20T10:23:04.713Z,12.55
2022-12-20T10:25:53.833Z,13.45
2022-12-20T10:28:40.969Z,12.80
2022-12-20T10:31:27.573Z,12.57
2022-12-20T10:34:15.994Z,12.35
2022-12-20T10:37:13.176Z,13.50
2022-12-20T10:40:05.174Z,12.48
2022-12-20T10:42:53.191Z,12.57
2022-12-20T10:45:43.310Z,12.90
2022-12-20T10:48:32.009Z,26.42
2022-12-20T10:51:22.847Z,18.83
2022-12-20T10:54:35.763Z,13.77
2022-12-20T11:00:29.776Z,13.95
2022-12-20T11:03:15.896Z,10.80
2022-12-20T11:06:04.682Z,12.27
2022-12-20T11:08:55.414Z,13.07
2022-12-20T11:12:06.246Z,12.18
2022-12-20T11:15:12.561Z,11.93
2022-12-20T11:18:11.436Z,11.95
2022-12-20T11:21:14.619Z,11.88
2022-12-20T11:24:14.573Z,12.45
2022-12-20T11:27:31.385Z,10.77
2022-12-20T11:30:21.854Z,11.93
2022-12-20T11:33:24.744Z,11.13
2022-12-20T11:36:38.895Z,11.85
2022-12-20T11:39:48.903Z,11.38
2022-12-20T11:43:08.833Z,10.25
2022-12-20T11:46:16.363Z,11.73
2022-12-20T11:49:39.087Z,12.80
2022-12-20T11:52:36.299Z,13.38
2022-12-20T11:55:26.596Z,11.85
2022-12-20T11:58:23.715Z,11.23
2022-12-20T12:01:16.960Z,11.13
2022-12-20T12:04:14.398Z,10.23
2022-12-20T12:07:12.463Z,10.10
2022-12-20T12:10:16.932Z,11.13
2022-12-20T12:13:17.775Z,15.35
2022-12-20T12:16:22.984Z,13.98
2022-12-20T12:19:12.720Z,12.90
2022-12-20T12:22:06.781Z,11.15
2022-12-20T12:24:59.527Z,12.13
2022-12-20T12:30:39.747Z,11.25
2022-12-20T12:33:39.121Z,11.23
2022-12-20T12:36:47.910Z,11.77
2022-12-20T12:39:43.086Z,11.85
2022-12-20T12:42:59.222Z,11.57
2022-12-20T12:45:50.071Z,11.20
2022-12-20T12:48:57.846Z,9.80
2022-12-20T12:51:50.775Z,10.32
2022-12-20T12:54:39.521Z,11.20
2022-12-20T12:57:29.196Z,11.00
2022-12-20T13:00:52.173Z,11.05
2022-12-20T13:04:00.949Z,11.35
2022-12-20T13:06:47.249Z,10.35
2022-12-20T13:09:32.863Z,10.45
2022-12-20T13:12:37.753Z,12.68
2022-12-20T13:15:22.979Z,12.07
2022-12-20T13:18:12.142Z,13.70
2022-12-20T13:21:30.015Z,13.25
2022-12-20T13:24:48.752Z,13.13
2022-12-20T13:27:40.819Z,14.90
2022-12-20T13:30:28.007Z,22.15
2022-12-20T13:33:24.347Z,15.38
2022-12-20T13:36:10.214Z,14.63
2022-12-20T13:38:58.763Z,14.63
2022-12-20T13:41:49.196Z,15.48
2022-12-20T13:44:45.176Z,15.25
2022-12-20T13:47:46.977Z,16.50
2022-12-20T13:50:39.693Z,15.48
2022-12-20T13:53:27.611Z,16.27
2022-12-20T13:56:46.213Z,16.70
2022-12-20T13:59:33.390Z,20.33
2022-12-20T14:02:33.076Z,24.35
2022-12-20T14:05:22.054Z,21.45
2022-12-20T14:08:18.457Z,22.30
2022-12-20T14:11:18.800Z,13.40
2022-12-20T14:14:05.037Z,12.75
2022-12-20T14:16:50.807Z,11.52
2022-12-20T14:19:36.425Z,10.52
2022-12-20T14:22:22.247Z,10.93
2022-12-20T14:25:09.487Z,10.63
2022-12-20T14:27:56.047Z,12.35
2022-12-20T14:30:43.967Z,11.95
2022-12-20T14:33:38.671Z,14.80
2022-12-20T14:36:24.620Z,17.10
2022-12-20T14:39:30.438Z,18.35
2022-12-20T14:42:20.804Z,23.17
2022-12-20T14:45:19.099Z,23.52
2022-12-20T14:48:15.454Z,17.35
2022-12-20T14:51:04.867Z,14.98
2022-12-20T14:53:52.218Z,13.60
2022-12-20T14:56:38.432Z,14.50
2022-12-20T14:59:29.729Z,16.05
2022-12-20T15:02:36.683Z,16.67
2022-12-20T15:05:40.643Z,12.85
2022-12-20T15:08:34.423Z,14.43
2022-12-20T15:11:23.174Z,13.75
2022-12-20T15:14:39.497Z,15.73
2022-12-20T15:17:25.711Z,23.48
2022-12-20T15:20:15.012Z,16.80
2022-12-20T15:23:00.669Z,14.88
2022-12-20T15:25:47.244Z,34.60
2022-12-20T15:28:33.161Z,16.90
2022-12-20T15:31:22.978Z,15.85
2022-12-20T15:37:00.413Z,11.93
2022-12-20T15:39:46.466Z,14.82
2022-12-20T15:42:32.301Z,12.73
2022-12-20T15:45:17.862Z,13.95
2022-12-20T15:48:03.287Z,15.70
2022-12-20T15:50:58.118Z,18.08
2022-12-20T15:53:44.340Z,15.68
2022-12-20T15:56:30.101Z,14.57
2022-12-20T15:59:48.967Z,13.73
2022-12-20T16:02:28.488Z,12.43
2022-12-20T16:05:14.495Z,14.95
2022-12-20T16:08:00.470Z,15.48
2022-12-20T16:10:47.163Z,16.73
2022-12-20T16:13:33.347Z,16.52
2022-12-20T16:16:21.989Z,15.57
2022-12-20T16:19:08.348Z,15.18
2022-12-20T16:21:53.934Z,16.65
2022-12-20T16:24:39.397Z,14.25
2022-12-20T16:27:25.257Z,15.55
2022-12-20T16:30:11.398Z,17.98
2022-12-20T16:32:59.200Z,16.85
2022-12-20T16:35:44.914Z,17.83
2022-12-20T16:38:30.240Z,18.58
2022-12-20T16:41:18.683Z,18.15
2022-12-20T16:44:05.307Z,18.02
2022-12-20T16:46:50.987Z,14.73
2022-12-20T16:49:36.833Z,13.85
2022-12-20T16:52:23.162Z,14.77
2022-12-20T16:55:18.101Z,17.45
2022-12-20T16:58:03.849Z,16.08
2022-12-20T17:00:51.096Z,15.90
2022-12-20T17:03:36.948Z,13.40
2022-12-20T17:06:22.502Z,15.15
2022-12-20T17:12:20.366Z,13.48
2022-12-20T17:15:06.872Z,15.10
2022-12-20T17:17:53.315Z,14.55
2022-12-20T17:20:39.335Z,14.43
2022-12-20T17:23:24.862Z,14.63
2022-12-20T17:26:15.347Z,15.90
2022-12-20T17:29:00.986Z,16.08
2022-12-20T17:31:48.070Z,17.27
2022-12-20T17:34:34.742Z,18.63
2022-12-20T17:37:21.222Z,18.75
2022-12-20T17:40:10.145Z,21.25
2022-12-20T17:42:55.971Z,22.40
2022-12-20T17:45:41.911Z,36.58
2022-12-20T17:48:32.642Z,44.15
2022-12-20T17:51:23.884Z,34.40
2022-12-20T17:54:25.409Z,32.65
2022-12-20T17:57:15.499Z,28.63
2022-12-20T18:00:01.703Z,31.23
2022-12-20T18:02:49.675Z,30.67
2022-12-20T18:05:35.663Z,22.58
2022-12-20T18:08:20.966Z,25.20
2022-12-20T18:11:06.581Z,22.67
2022-12-20T18:13:54.553Z,20.85
2022-12-20T18:16:40.949Z,20.15
2022-12-20T18:19:26.781Z,19.27
2022-12-20T18:22:13.611Z,22.02
2022-12-20T18:25:00.408Z,21.77
2022-12-20T18:27:46.474Z,22.00
2022-12-20T18:30:33.029Z,22.27
2022-12-20T18:33:18.579Z,21.50
2022-12-20T18:36:11.024Z,19.30
2022-12-20T18:38:58.981Z,20.25
2022-12-20T18:41:44.772Z,19.23
2022-12-20T18:44:35.488Z,17.08
2022-12-20T18:47:21.289Z,17.17
2022-12-20T18:50:07.722Z,16.58
2022-12-20T18:52:59.443Z,17.35
2022-12-20T18:55:48.397Z,18.85
2022-12-20T18:58:36.396Z,18.08
2022-12-20T19:01:28.571Z,18.88
2022-12-20T19:04:19.242Z,17.60
2022-12-20T19:07:08.329Z,17.52
2022-12-20T19:09:54.279Z,19.02
2022-12-20T19:12:39.786Z,18.33
2022-12-20T19:15:25.674Z,17.27
2022-12-20T19:18:12.534Z,16.98
2022-12-20T19:21:31.424Z,17.15
2022-12-20T19:24:17.905Z,16.63
2022-12-20T19:27:06.207Z,16.58
2022-12-20T19:29:52.937Z,17.35
2022-12-20T19:32:38.616Z,16.75
2022-12-20T19:35:54.108Z,16.98
2022-12-20T19:38:29.594Z,16.92
2022-12-20T19:41:15.162Z,17.80
2022-12-20T19:44:00.801Z,17.52
2022-12-20T19:46:46.655Z,19.30
2022-12-20T19:49:36.192Z,20.70
2022-12-20T19:52:28.222Z,22.27
2022-12-20T19:55:14.440Z,21.67
2022-12-20T19:58:00.197Z,21.10
2022-12-20T20:00:50.678Z,19.38
2022-12-20T20:03:37.665Z,18.95
2022-12-20T20:06:24.847Z,19.23
2022-12-20T20:09:11.451Z,17.98
2022-12-20T20:11:56.977Z,29.88
2022-12-20T20:14:42.748Z,21.92
2022-12-20T20:17:29.311Z,21.02
2022-12-20T20:20:15.238Z,19.13
2022-12-20T20:23:01.139Z,18.00
2022-12-20T20:25:53.072Z,15.75
2022-12-20T20:28:45.200Z,15.07
2022-12-20T20:31:31.991Z,15.90
2022-12-20T20:34:17.853Z,21.30
2022-12-20T20:37:03.728Z,26.73
2022-12-20T20:39:49.535Z,18.15
2022-12-20T20:42:35.379Z,17.08
2022-12-20T20:45:20.599Z,16.13
2022-12-20T20:48:09.118Z,15.32
2022-12-20T20:50:58.327Z,17.33
2022-12-20T20:53:44.920Z,17.92
2022-12-20T20:56:32.670Z,18.27
2022-12-20T20:59:18.998Z,16.10
2022-12-20T21:02:05.189Z,13.02
2022-12-20T21:05:35.296Z,13.93
2022-12-20T21:07:59.298Z,14.23
2022-12-20T21:10:45.042Z,14.50
2022-12-20T21:13:30.977Z,12.88
2022-12-20T21:16:20.950Z,13.35
2022-12-20T21:19:06.637Z,14.25
2022-12-20T21:21:52.507Z,14.43
2022-12-20T21:24:38.206Z,18.88
2022-12-20T21:27:24.004Z,25.45
2022-12-20T21:30:10.003Z,27.77
2022-12-20T21:32:55.411Z,28.15
2022-12-20T21:35:40.933Z,26.98
2022-12-20T21:38:26.623Z,27.58
2022-12-20T21:41:13.455Z,27.40
2022-12-20T21:44:00.165Z,28.25
2022-12-20T21:46:45.753Z,22.98
2022-12-20T21:49:31.060Z,21.77
2022-12-20T21:52:17.557Z,18.08
2022-12-20T21:55:03.890Z,16.77
2022-12-20T21:57:49.345Z,16.17
2022-12-20T22:00:34.758Z,18.77
2022-12-20T22:03:24.884Z,15.35
2022-12-20T22:06:11.184Z,14.68
2022-12-20T22:09:02.585Z,13.52
2022-12-20T22:11:48.634Z,12.27
2022-12-20T22:14:34.145Z,13.93
2022-12-20T22:17:19.544Z,16.15
2022-12-20T22:20:05.728Z,16.85
2022-12-20T22:22:51.671Z,19.73
2022-12-20T22:25:37.173Z,34.25
2022-12-20T22:28:22.622Z,23.50
2022-12-20T22:31:09.878Z,22.55
2022-12-20T22:33:57.010Z,18.90
2022-12-20T22:36:42.321Z,17.50
2022-12-20T22:39:27.826Z,15.63
2022-12-20T22:42:13.319Z,15.40
2022-12-20T22:44:58.995Z,14.77
2022-12-20T22:47:44.629Z,14.90
2022-12-20T22:50:30.598Z,16.15
2022-12-20T22:53:16.049Z,16.83
2022-12-20T22:56:01.839Z,16.77
2022-12-20T22:58:48.719Z,16.92
2022-12-20T23:01:34.949Z,18.70
2022-12-20T23:04:20.605Z,19.15
2022-12-20T23:07:07.502Z,17.85
2022-12-20T23:09:53.239Z,19.27
2022-12-20T23:12:57.281Z,19.00
2022-12-20T23:15:43.009Z,19.08
2022-12-20T23:18:28.450Z,18.98
2022-12-20T23:21:32.471Z,16.90
2022-12-20T23:24:18.069Z,17.50
2022-12-20T23:27:03.939Z,17.13
2022-12-20T23:29:49.510Z,17.00
2022-12-20T23:32:35.199Z,18.65
2022-12-20T23:35:21.492Z,16.65
2022-12-20T23:38:07.659Z,18.33
2022-12-20T23:40:53.555Z,17.75
2022-12-20T23:43:39.682Z,20.13
2022-12-20T23:46:25.476Z,19.80
2022-12-20T23:49:11.736Z,21.48
2022-12-20T23:51:58.014Z,19.10
2022-12-20T23:54:43.978Z,19.00
2022-12-20T23:57:31.271Z,20.48
